Time;durP1;ratioP1;P1;durP2;ratioP2;P2;SDS_P1;SDS_P2;PMS_P1;PMS_P2;Temp;Humidity;BMP_temperature;BMP_pressure;BME280_temperature;BME280_humidity;BME280_pressure;Samples;Min_cycle;Max_cycle;Signal;HPM_P1;HPM_P2
2021/12/13 00:01:50;;;;;;;9.68;4.47;;;;;;;-0.31;75.59;100876.56;4421865;32;20094;-71
2021/12/13 00:04:18;;;;;;;9.60;4.87;;;;;;;-0.28;75.54;100881.00;4421846;32;20077;-71
2021/12/13 00:06:52;;;;;;;12.88;4.93;;;;;;;-0.32;75.70;100881.69;4421698;32;20124;-71
2021/12/13 00:09:24;;;;;;;10.15;3.78;;;;;;;-0.36;75.92;100880.66;4421743;32;20164;-71
2021/12/13 00:11:59;;;;;;;7.55;3.70;;;;;;;-0.37;75.91;100878.03;4421745;32;20078;-72
2021/12/13 00:14:33;;;;;;;8.07;4.80;;;;;;;-0.39;76.00;100887.44;4421657;32;20153;-71
2021/12/13 00:17:16;;;;;;;5.82;3.65;;;;;;;-0.43;76.09;100885.53;4421651;32;20081;-71
2021/12/13 00:19:50;;;;;;;10.50;4.00;;;;;;;-0.46;76.21;100881.13;4421690;32;20121;-71
2021/12/13 00:22:24;;;;;;;10.30;4.65;;;;;;;-0.53;76.51;100890.38;4421667;32;20424;-71
2021/12/13 00:25:00;;;;;;;7.10;3.33;;;;;;;-0.50;76.38;100900.81;4421592;32;20093;-71
2021/12/13 00:27:29;;;;;;;8.43;4.45;;;;;;;-0.55;76.41;100897.19;4421603;32;20128;-71
2021/12/13 00:30:06;;;;;;;10.85;4.82;;;;;;;-0.57;76.48;100900.50;4421810;32;20480;-71
2021/12/13 00:32:54;;;;;;;11.02;4.80;;;;;;;-0.66;76.90;100901.03;4421549;32;20500;-71
2021/12/13 00:35:25;;;;;;;10.68;5.32;;;;;;;-0.68;77.16;100901.78;4421524;32;20123;-71
2021/12/13 00:37:59;;;;;;;8.00;4.65;;;;;;;-0.74;77.56;100915.37;4421507;32;20078;-71
2021/12/13 00:40:34;;;;;;;12.90;4.60;;;;;;;-0.80;77.58;100918.56;4421548;32;20912;-71
2021/12/13 00:43:26;;;;;;;15.98;4.82;;;;;;;-0.88;77.90;100926.78;4421640;32;20146;-71
2021/12/13 00:45:57;;;;;;;12.20;4.85;;;;;;;-0.99;78.72;100923.75;4421423;32;20074;-71
2021/12/13 00:48:27;;;;;;;9.82;4.82;;;;;;;-1.04;78.88;100935.63;4421325;32;20094;-71
2021/12/13 00:51:03;;;;;;;9.70;4.40;;;;;;;-1.04;78.92;100922.69;4421545;32;20093;-71
2021/12/13 00:53:36;;;;;;;15.73;5.72;;;;;;;-0.83;77.95;100927.91;4421517;32;20161;-71
2021/12/13 00:56:41;;;;;;;9.40;4.45;;;;;;;-0.77;77.54;100941.09;4421354;32;20453;-71
2021/12/13 00:59:11;;;;;;;8.68;4.53;;;;;;;-0.80;77.82;100946.13;4421418;32;20150;-71
2021/12/13 01:01:40;;;;;;;9.82;4.47;;;;;;;-0.91;78.21;100950.84;4421287;32;20101;-71
2021/12/13 01:04:14;;;;;;;12.18;5.45;;;;;;;-0.89;78.18;100950.91;4421352;32;20520;-71
2021/12/13 01:07:30;;;;;;;9.93;5.05;;;;;;;-0.84;77.96;100946.84;4421033;32;20093;-71
2021/12/13 01:10:16;;;;;;;9.40;4.82;;;;;;;-0.91;78.19;100944.81;4426423;32;20177;-71
2021/12/13 01:12:46;;;;;;;7.87;4.55;;;;;;;-0.92;78.41;100937.84;4421505;32;20116;-71
2021/12/13 01:15:19;;;;;;;13.00;5.80;;;;;;;-0.79;77.79;100942.72;4406758;32;20107;-71
2021/12/13 01:20:30;;;;;;;7.50;3.10;;;;;;;-0.70;76.96;100930.19;4421031;32;20559;-71
2021/12/13 01:23:04;;;;;;;7.45;3.00;;;;;;;-0.75;77.25;100924.78;4420992;32;20097;-71
2021/12/13 01:26:00;;;;;;;12.15;4.25;;;;;;;-0.63;76.75;100936.50;4421011;32;20119;-71
2021/12/13 01:28:38;;;;;;;5.87;3.85;;;;;;;-0.63;76.51;100928.75;4421043;32;20138;-71
2021/12/13 01:31:10;;;;;;;5.97;4.03;;;;;;;-0.64;76.58;100933.00;4420975;32;20836;-71
2021/12/13 01:33:41;;;;;;;6.05;3.55;;;;;;;-0.63;76.51;100934.81;4420905;32;20566;-71
2021/12/13 01:36:11;;;;;;;6.60;4.03;;;;;;;-0.61;76.45;100927.09;4421115;32;20433;-71
2021/12/13 01:38:47;;;;;;;12.93;4.93;;;;;;;-0.64;76.55;100938.19;4420935;32;20098;-71
2021/12/13 01:41:22;;;;;;;4.35;3.12;;;;;;;-0.66;76.80;100923.44;4420863;32;20119;-71
2021/12/13 01:44:00;;;;;;;11.73;4.15;;;;;;;-0.63;76.45;100918.41;4420934;32;20112;-71
2021/12/13 01:46:27;;;;;;;13.43;5.40;;;;;;;-0.63;76.26;100921.87;4420891;32;20138;-71
2021/12/13 01:48:57;;;;;;;6.87;4.22;;;;;;;-0.62;76.29;100920.16;4420987;32;20115;-71
2021/12/13 01:51:27;;;;;;;8.88;3.87;;;;;;;-0.59;76.18;100923.75;4420799;32;20791;-71
2021/12/13 01:53:59;;;;;;;3.15;1.98;;;;;;;-0.59;76.01;100916.00;4420701;32;20090;-71
2021/12/13 01:56:46;;;;;;;7.55;3.83;;;;;;;-0.59;76.09;100926.34;4420920;32;20081;-71
2021/12/13 02:00:21;;;;;;;9.93;3.62;;;;;;;-0.60;75.95;100909.06;4420808;32;20549;-71
2021/12/13 02:02:24;;;;;;;5.70;3.28;;;;;;;-0.60;75.95;100915.91;4410398;32;20176;-71
2021/12/13 02:04:58;;;;;;;;;;;;;;;-0.59;75.80;100921.16;4406878;32;20117;-71
2021/12/13 02:07:34;;;;;;;7.37;3.97;;;;;;;-0.57;75.65;100910.88;4420803;32;20310;-71
2021/12/13 02:10:06;;;;;;;21.58;5.87;;;;;;;-0.60;75.79;100914.22;4420782;32;20513;-71
2021/12/13 02:12:36;;;;;;;9.07;4.78;;;;;;;-0.59;75.79;100925.47;4420576;32;20093;-71
2021/12/13 02:17:52;;;;;;;9.80;4.80;;;;;;;-0.52;75.34;100923.19;4419658;32;20507;-71
2021/12/13 02:20:29;;;;;;;9.60;4.35;;;;;;;-0.52;75.34;100930.94;4420601;32;20517;-71
2021/12/13 02:22:57;;;;;;;13.40;4.93;;;;;;;-0.50;75.06;100934.47;4420410;32;20090;-70
2021/12/13 02:25:33;;;;;;;7.25;3.25;;;;;;;-0.56;75.39;100925.59;4420341;32;20106;-71
2021/12/13 02:28:14;;;;;;;11.20;4.10;;;;;;;-0.50;75.06;100924.13;4420475;32;20078;-71
2021/12/13 02:30:51;;;;;;;8.00;4.12;;;;;;;-0.49;75.00;100932.78;4420363;32;20111;-71
2021/12/13 02:33:23;;;;;;;14.95;4.25;;;;;;;-0.52;75.18;100937.84;4420313;32;20131;-71
2021/12/13 02:36:01;;;;;;;7.55;4.35;;;;;;;-0.56;75.42;100941.13;4420380;32;20110;-71
2021/12/13 02:38:28;;;;;;;11.05;4.30;;;;;;;-0.57;75.40;100934.16;4420342;32;20429;-71
2021/12/13 02:40:57;;;;;;;11.40;4.90;;;;;;;-0.63;75.62;100946.88;4420274;31;20101;-71
2021/12/13 02:43:32;;;;;;;11.10;5.18;;;;;;;-0.62;75.58;100933.09;4420452;32;20097;-71
2021/12/13 02:46:01;;;;;;;5.12;3.25;;;;;;;-0.68;75.86;100938.00;4420288;32;20157;-71
2021/12/13 02:48:34;;;;;;;10.70;5.07;;;;;;;-0.64;75.68;100942.47;4420180;32;20342;-71
2021/12/13 02:51:13;;;;;;;11.02;5.22;;;;;;;-0.67;75.81;100948.44;4420237;32;20536;-71
2021/12/13 02:53:58;;;;;;;10.50;5.03;;;;;;;-0.80;76.61;100946.13;4420188;32;20829;-71
2021/12/13 02:56:32;;;;;;;11.35;4.97;;;;;;;-0.69;76.03;100951.78;4420168;32;20116;-71
2021/12/13 02:59:00;;;;;;;16.48;5.10;;;;;;;-0.70;76.04;100947.44;4420090;32;20593;-71
2021/12/13 03:01:30;;;;;;;12.30;5.43;;;;;;;-0.73;76.04;100951.63;4420056;32;20172;-71
2021/12/13 03:04:03;;;;;;;8.45;4.20;;;;;;;-0.74;76.28;100941.25;4419968;32;20508;-71
2021/12/13 03:06:35;;;;;;;9.23;5.22;;;;;;;-0.78;76.37;100935.06;4420095;32;20184;-71
2021/12/13 03:09:15;;;;;;;11.32;4.20;;;;;;;-0.70;76.12;100931.91;4420143;32;20116;-71
2021/12/13 03:11:47;;;;;;;8.15;4.43;;;;;;;-0.71;76.25;100943.94;4420147;32;20485;-71
2021/12/13 03:14:20;;;;;;;10.05;4.93;;;;;;;-0.72;76.22;100932.69;4420000;32;20159;-71
2021/12/13 03:17:13;;;;;;;13.40;5.47;;;;;;;-0.67;76.05;100935.50;4419868;32;20102;-71
2021/12/13 03:19:40;;;;;;;9.00;4.43;;;;;;;-0.70;76.11;100927.59;4419910;32;20400;-71
2021/12/13 03:22:26;;;;;;;10.63;4.80;;;;;;;-0.61;75.71;100938.31;4420052;32;20094;-71
2021/12/13 03:24:56;;;;;;;8.30;4.45;;;;;;;-0.57;75.61;100923.81;4419512;32;20142;-71
2021/12/13 03:27:42;;;;;;;9.75;4.82;;;;;;;-0.65;75.93;100928.66;4419942;32;20425;-71
2021/12/13 03:30:20;;;;;;;8.80;4.72;;;;;;;-0.62;76.06;100920.16;4421472;32;20073;-71
2021/12/13 03:32:58;;;;;;;17.40;6.18;;;;;;;-0.70;76.60;100918.97;4422158;32;20484;-71
2021/12/13 03:35:49;;;;;;;7.62;3.53;;;;;;;-0.68;76.51;100915.59;4421986;32;20569;-71
2021/12/13 03:38:22;;;;;;;8.95;4.87;;;;;;;-0.59;76.29;100926.34;4422114;32;20131;-71
2021/12/13 03:40:50;;;;;;;12.27;5.37;;;;;;;-0.59;76.18;100928.94;4422081;32;20100;-71
2021/12/13 03:43:30;;;;;;;10.13;4.47;;;;;;;-0.60;76.42;100928.84;4422082;32;20141;-71
2021/12/13 03:46:02;;;;;;;8.93;5.35;;;;;;;-0.72;76.87;100955.09;4422177;32;20501;-71
2021/12/13 03:48:31;;;;;;;11.38;5.62;;;;;;;-0.72;76.86;100950.81;4422181;32;20137;-71
2021/12/13 03:51:04;;;;;;;10.38;4.95;;;;;;;-0.74;77.07;100959.34;4421965;32;20418;-71
2021/12/13 03:53:34;;;;;;;9.57;4.90;;;;;;;-0.97;78.33;100966.97;4421932;32;20111;-71
2021/12/13 03:56:15;;;;;;;10.70;5.20;;;;;;;-1.01;78.78;100962.50;4421817;32;20077;-71
2021/12/13 03:58:47;;;;;;;11.98;5.25;;;;;;;-1.16;79.64;100966.13;4421949;32;20920;-71
2021/12/13 04:01:25;;;;;;;16.00;6.40;;;;;;;-1.01;78.84;100954.72;4421837;32;20081;-71
2021/12/13 04:03:57;;;;;;;9.50;5.55;;;;;;;-1.12;79.37;100968.91;4407582;32;20165;-71
2021/12/13 04:06:25;;;;;;;13.40;5.93;;;;;;;-1.11;79.63;100964.59;4421799;32;20430;-71
2021/12/13 04:08:57;;;;;;;14.00;4.78;;;;;;;-1.09;79.57;100965.56;4421963;32;20102;-71
2021/12/13 04:11:27;;;;;;;15.70;6.53;;;;;;;-1.01;79.46;100962.50;4421763;32;20082;-71
2021/12/13 04:14:08;;;;;;;10.15;5.90;;;;;;;-1.16;80.25;100963.53;4421702;32;20509;-71
2021/12/13 04:16:49;;;;;;;16.55;6.72;;;;;;;-0.96;79.84;100957.50;4421970;32;20201;-71
2021/12/13 04:19:22;;;;;;;14.30;5.70;;;;;;;-0.90;79.52;100960.38;4421876;32;20156;-72
2021/12/13 04:21:58;;;;;;;13.25;6.30;;;;;;;-0.81;79.38;100954.72;4421760;32;20400;-71
2021/12/13 04:24:34;;;;;;;16.62;6.65;;;;;;;-0.81;79.55;100967.66;4421566;32;20093;-71
2021/12/13 04:27:07;;;;;;;9.35;5.62;;;;;;;-0.81;79.59;100965.09;4421628;32;20119;-71
2021/12/13 04:29:38;;;;;;;14.82;6.12;;;;;;;-0.74;79.36;100961.94;4421802;32;20483;-71
2021/12/13 04:32:22;;;;;;;12.27;6.25;;;;;;;-0.73;79.28;100961.09;4421561;32;20388;-71
2021/12/13 04:34:58;;;;;;;9.57;5.53;;;;;;;-0.78;79.64;100979.03;4421475;32;20094;-71
2021/12/13 04:37:29;;;;;;;18.00;7.15;;;;;;;-0.66;79.14;100976.06;4421485;32;20186;-71
2021/12/13 04:40:00;;;;;;;18.75;6.82;;;;;;;-0.76;79.85;100971.31;4421319;32;20445;-71
2021/12/13 04:42:29;;;;;;;13.18;6.22;;;;;;;-0.78;79.93;100967.78;4429436;32;20089;-72
2021/12/13 04:45:17;;;;;;;12.20;6.70;;;;;;;-0.70;79.76;100987.13;4437261;32;20116;-71
2021/12/13 04:48:03;;;;;;;15.63;7.10;;;;;;;-0.77;80.11;100970.44;4436690;32;20518;-71
2021/12/13 04:50:35;;;;;;;15.18;7.25;;;;;;;-0.90;80.94;100977.59;4437273;32;20089;-71
2021/12/13 04:53:03;;;;;;;14.00;6.90;;;;;;;-0.96;81.18;100978.22;4436538;32;20440;-72
2021/12/13 04:55:37;;;;;;;16.40;7.30;;;;;;;-1.09;81.92;100978.50;4436681;32;20107;-71
2021/12/13 04:58:09;;;;;;;16.90;7.47;;;;;;;-1.09;nan;100979.37;4436544;32;20848;-71
2021/12/13 05:00:41;;;;;;;14.43;7.20;;;;;;;-1.18;82.43;100994.47;4436801;32;20115;-71
2021/12/13 05:03:12;;;;;;;18.23;8.15;;;;;;;-1.31;83.41;100992.16;4423165;32;20085;-70
2021/12/13 05:05:40;;;;;;;13.95;6.70;;;;;;;-0.87;85.73;100986.37;4436628;32;20085;-70
2021/12/13 05:08:14;;;;;;;14.90;7.32;;;;;;;-0.49;92.57;100990.63;4436186;31;20503;-70
2021/12/13 05:10:48;;;;;;;15.48;7.65;;;;;;;-0.65;83.35;100988.19;4436640;32;20125;-70
2021/12/13 05:13:17;;;;;;;13.13;6.32;;;;;;;-0.65;86.45;100985.59;4434380;32;20722;-70
2021/12/13 05:15:54;;;;;;;16.12;7.87;;;;;;;-0.28;83.15;100990.63;4436722;31;20169;-70
2021/12/13 05:18:30;;;;;;;19.87;8.63;;;;;;;-0.38;81.78;101009.19;4437312;32;20101;-70
2021/12/13 05:21:00;;;;;;;21.62;8.98;;;;;;;-0.36;82.51;101001.47;4437267;32;20818;-70
2021/12/13 05:23:31;;;;;;;19.73;8.77;;;;;;;-0.40;84.52;101007.34;4429681;31;20077;-70
2021/12/13 05:26:03;;;;;;;17.67;8.55;;;;;;;-0.55;83.47;101003.28;4421832;32;20164;-70
2021/12/13 05:28:44;;;;;;;20.83;9.60;;;;;;;-0.46;84.21;101017.44;4421657;32;20105;-70
2021/12/13 05:31:19;;;;;;;18.75;9.20;;;;;;;-0.53;83.04;101016.28;4421654;32;20109;-70
2021/12/13 05:33:52;;;;;;;19.50;9.07;;;;;;;-0.49;83.93;101010.44;4421397;32;20081;-70
2021/12/13 05:36:32;;;;;;;22.65;9.88;;;;;;;-0.60;83.16;101007.41;4421893;32;20081;-70
2021/12/13 05:39:05;;;;;;;18.95;8.75;;;;;;;-0.55;85.01;101008.47;4421821;32;20476;-70
2021/12/13 05:41:33;;;;;;;24.50;9.98;;;;;;;-0.57;83.92;101004.03;4422782;32;20181;-70
2021/12/13 05:44:06;;;;;;;21.20;10.07;;;;;;;-0.67;83.87;101004.47;4430570;32;20161;-70
2021/12/13 05:46:33;;;;;;;26.85;11.05;;;;;;;-0.70;84.07;101004.34;4421698;32;20131;-70
2021/12/13 05:49:04;;;;;;;17.67;9.50;;;;;;;-0.66;83.90;101007.13;4421437;32;20089;-70
2021/12/13 05:51:34;;;;;;;36.58;14.82;;;;;;;-0.66;84.15;101012.31;4407553;32;20229;-70
2021/12/13 05:54:23;;;;;;;25.15;11.52;;;;;;;-0.72;84.36;101012.03;4421745;32;20081;-70
2021/12/13 05:56:59;;;;;;;25.70;9.57;;;;;;;-0.66;84.79;101014.91;4421194;32;20737;-71
2021/12/13 05:59:40;;;;;;;19.02;8.13;;;;;;;-0.74;84.73;101026.63;4421299;32;20143;-71
2021/12/13 06:02:17;;;;;;;17.15;8.65;;;;;;;-0.72;84.87;101024.97;4421392;32;20089;-71
2021/12/13 06:04:56;;;;;;;13.70;6.75;;;;;;;-0.69;84.83;101027.69;4421256;32;20158;-71
2021/12/13 06:07:26;;;;;;;14.63;7.87;;;;;;;-0.65;84.47;101020.94;4427587;32;20441;-71
2021/12/13 06:10:09;;;;;;;13.75;7.87;;;;;;;-0.63;84.52;101027.09;4419830;32;20094;-71
2021/12/13 06:12:47;;;;;;;19.77;8.50;;;;;;;-0.67;84.71;101028.66;4421191;32;20127;-71
2021/12/13 06:15:15;;;;;;;15.73;5.70;;;;;;;-0.72;84.90;101030.16;4421309;32;20214;-71
2021/12/13 06:18:14;;;;;;;13.77;7.93;;;;;;;-0.65;84.84;101023.53;4403291;32;576876;-71
2021/12/13 06:21:06;;;;;;;17.55;8.88;;;;;;;-0.71;84.96;101037.09;4425897;32;20577;-71
2021/12/13 06:23:37;;;;;;;12.80;5.95;;;;;;;-0.74;85.21;101042.16;4419880;32;20441;-71
2021/12/13 06:26:10;;;;;;;16.30;8.25;;;;;;;-0.68;85.02;101044.09;4418433;32;20081;-71
2021/12/13 06:28:44;;;;;;;16.08;7.53;;;;;;;-0.64;84.83;101057.25;4421066;32;20089;-71
2021/12/13 06:31:19;;;;;;;18.10;8.13;;;;;;;-0.66;84.94;101053.72;4420014;32;20121;-72
2021/12/13 06:33:50;;;;;;;17.73;8.82;;;;;;;-0.64;84.92;101057.25;4420163;32;20105;-71
2021/12/13 06:36:30;;;;;;;22.33;8.75;;;;;;;-0.61;84.88;101056.50;4428304;32;20074;-71
2021/12/13 06:39:01;;;;;;;8.38;5.10;;;;;;;-0.58;84.82;101056.63;4427927;32;20152;-71
2021/12/13 06:41:28;;;;;;;25.55;9.45;;;;;;;-0.49;84.25;101060.53;4413079;32;20166;-71
2021/12/13 06:44:04;;;;;;;19.20;8.05;;;;;;;-0.57;84.63;101066.16;4429181;31;20101;-71
2021/12/13 06:46:54;;;;;;;18.33;7.87;;;;;;;-0.62;85.04;101073.72;4427203;32;20180;-71
2021/12/13 06:49:35;;;;;;;23.62;9.77;;;;;;;-0.65;84.96;101071.00;4426691;32;20175;-72
2021/12/13 06:52:18;;;;;;;23.87;8.25;;;;;;;-0.67;85.42;101069.16;4424312;32;20225;-72
2021/12/13 06:54:53;;;;;;;22.23;9.30;;;;;;;-0.63;85.61;101081.44;4426773;32;20148;-71
2021/12/13 06:57:30;;;;;;;18.08;9.52;;;;;;;-0.53;85.30;101081.91;4426450;32;20081;-71
2021/12/13 07:00:09;;;;;;;21.93;9.57;;;;;;;-0.59;85.38;101084.22;4420619;32;20485;-71
2021/12/13 07:02:42;;;;;;;24.00;10.73;;;;;;;-0.50;85.36;101086.31;4420434;32;20539;-71
2021/12/13 07:05:16;;;;;;;18.70;8.05;;;;;;;-0.58;85.75;101087.69;4422245;32;20123;-71
2021/12/13 07:07:55;;;;;;;26.08;9.63;;;;;;;-0.59;86.19;101079.03;4422872;32;20452;-71
2021/12/13 07:10:36;;;;;;;18.25;9.60;;;;;;;-0.55;86.19;101083.53;4422869;32;20142;-71
2021/12/13 07:13:20;;;;;;;27.52;11.32;;;;;;;-0.48;85.85;101074.34;4427724;32;20170;-71
2021/12/13 07:15:50;;;;;;;29.15;11.52;;;;;;;-0.41;85.79;101078.09;4422862;32;20125;-70
2021/12/13 07:18:27;;;;;;;24.65;10.80;;;;;;;-0.26;85.20;101081.31;4422644;32;20077;-72
2021/12/13 07:21:21;;;;;;;21.37;9.70;;;;;;;-0.04;84.14;101084.00;4423079;32;20210;-71
2021/12/13 07:23:56;;;;;;;18.58;9.38;;;;;;;-0.04;84.02;101084.00;4417806;32;20748;-72
2021/12/13 07:26:35;;;;;;;19.85;9.85;;;;;;;0.04;83.64;101088.66;4422648;32;20097;-73
2021/12/13 07:29:10;;;;;;;21.10;9.50;;;;;;;0.01;83.82;101086.81;4422591;32;20081;-73
2021/12/13 07:31:41;;;;;;;18.55;9.25;;;;;;;0.07;83.42;101089.66;4422489;32;20082;-72
2021/12/13 07:34:13;;;;;;;22.25;9.57;;;;;;;0.19;83.03;101090.16;4426434;32;20150;-72
2021/12/13 07:36:42;;;;;;;22.98;9.73;;;;;;;0.31;82.83;101086.28;4432532;32;20187;-72
2021/12/13 07:39:15;;;;;;;21.52;8.02;;;;;;;0.36;82.68;101083.06;4438216;31;20153;-72
2021/12/13 07:41:48;;;;;;;19.50;8.15;;;;;;;0.39;82.29;101079.69;4437864;32;20158;-69
2021/12/13 07:44:30;;;;;;;17.23;9.48;;;;;;;0.59;81.43;101088.28;4438052;32;20479;-70
2021/12/13 07:47:14;;;;;;;18.62;7.82;;;;;;;0.68;80.59;101086.94;4437026;32;20104;-71
2021/12/13 07:49:45;;;;;;;23.30;9.55;;;;;;;0.78;80.05;101092.47;4437142;32;20141;-69
2021/12/13 07:52:24;;;;;;;16.30;8.73;;;;;;;0.78;80.43;101095.97;4435329;32;20093;-70
2021/12/13 07:54:53;;;;;;;21.40;9.38;;;;;;;0.85;80.13;101097.97;4437794;32;20085;-70
2021/12/13 07:57:30;;;;;;;23.35;9.05;;;;;;;0.98;79.84;101104.50;4427027;32;20098;-71
2021/12/13 08:00:08;;;;;;;21.00;8.80;;;;;;;1.05;79.50;101105.63;4425994;32;20089;-70
2021/12/13 08:02:38;;;;;;;14.93;7.68;;;;;;;1.06;79.32;101109.97;4429173;32;20105;-69
2021/12/13 08:05:11;;;;;;;17.92;6.45;;;;;;;1.07;79.43;101104.00;4437193;32;20144;-70
2021/12/13 08:07:43;;;;;;;17.30;8.45;;;;;;;1.09;79.47;101112.69;4436308;32;20105;-71
2021/12/13 08:10:22;;;;;;;14.48;6.57;;;;;;;1.10;79.60;101112.78;4437630;32;20108;-70
2021/12/13 08:13:20;;;;;;;24.48;10.48;;;;;;;1.15;79.56;101118.13;4427852;32;20093;-70
2021/12/13 08:15:52;;;;;;;18.95;8.90;;;;;;;1.16;79.50;101114.69;4427031;32;20105;-70
2021/12/13 08:18:40;;;;;;;18.70;10.23;;;;;;;1.24;79.34;101118.50;4429068;32;20726;-71
2021/12/13 08:21:12;;;;;;;13.40;6.28;;;;;;;1.22;79.54;101125.31;4427224;32;20729;-70
2021/12/13 08:23:47;;;;;;;9.50;4.65;;;;;;;1.38;78.73;101125.09;4427474;32;20085;-70
2021/12/13 08:26:25;;;;;;;23.00;10.45;;;;;;;1.44;78.32;101135.66;4436491;32;20102;-70
2021/12/13 08:28:55;;;;;;;17.55;8.32;;;;;;;1.48;78.45;101134.06;4436615;32;20112;-72
2021/12/13 08:31:35;;;;;;;20.75;8.70;;;;;;;1.53;77.86;101139.47;4436142;32;20154;-70
2021/12/13 08:34:09;;;;;;;14.95;8.43;;;;;;;1.61;77.77;101132.81;4436894;32;20423;-70
2021/12/13 08:36:41;;;;;;;17.37;7.68;;;;;;;1.66;77.78;101133.84;4437638;32;20093;-71
2021/12/13 08:39:22;;;;;;;18.83;9.20;;;;;;;1.71;77.23;101147.91;4437541;32;20144;-71
2021/12/13 08:41:55;;;;;;;23.98;10.70;;;;;;;1.77;77.08;101139.47;4435190;32;20085;-73
2021/12/13 08:44:35;;;;;;;18.52;8.90;;;;;;;1.81;77.04;101137.03;4437495;32;20077;-71
2021/12/13 08:47:10;;;;;;;20.15;9.00;;;;;;;1.86;76.39;101139.78;4437321;32;20085;-73
2021/12/13 08:49:46;;;;;;;19.15;8.80;;;;;;;2.09;76.66;101145.78;4437573;32;20480;-71
2021/12/13 08:52:13;;;;;;;18.73;9.98;;;;;;;2.22;76.41;101147.97;4425540;32;20159;-72
2021/12/13 08:54:46;;;;;;;24.87;11.32;;;;;;;2.28;74.89;101150.78;4431153;32;20097;-72
2021/12/13 08:57:32;;;;;;;34.15;12.37;;;;;;;2.36;73.98;101153.62;4435914;32;20090;-73
2021/12/13 09:00:07;;;;;;;25.27;11.95;;;;;;;2.39;74.26;101152.00;4436106;32;20101;-71
2021/12/13 09:02:38;;;;;;;20.50;10.23;;;;;;;2.48;73.27;101150.56;4435607;32;20080;-70
2021/12/13 09:05:11;;;;;;;35.03;13.20;;;;;;;2.56;72.93;101149.97;4435880;32;20085;-71
2021/12/13 09:07:56;;;;;;;26.77;10.70;;;;;;;2.66;72.58;101148.56;4428855;32;20104;-70
2021/12/13 09:10:48;;;;;;;25.42;8.82;;;;;;;2.70;72.48;101139.16;4427778;32;20097;-71
2021/12/13 09:13:19;;;;;;;26.50;12.30;;;;;;;2.72;72.10;101146.19;4428198;32;20088;-71
2021/12/13 09:15:49;;;;;;;22.92;9.73;;;;;;;2.84;71.40;101149.16;4426401;32;20552;-71
2021/12/13 09:18:22;;;;;;;32.63;14.48;;;;;;;2.96;71.14;101143.44;4432021;32;20155;-71
2021/12/13 09:20:52;;;;;;;29.37;11.77;;;;;;;3.06;70.35;101147.22;4429003;32;20105;-71
2021/12/13 09:23:30;;;;;;;26.65;11.45;;;;;;;3.23;70.03;101148.63;4433296;32;20097;-70
2021/12/13 09:26:27;;;;;;;23.95;9.80;;;;;;;3.30;68.55;101145.34;4427694;32;20098;-69
2021/12/13 09:29:04;;;;;;;20.23;9.50;;;;;;;3.46;69.01;101148.41;4416965;32;20168;-70
2021/12/13 09:31:36;;;;;;;23.45;10.00;;;;;;;3.68;68.43;101158.63;4427501;32;20188;-71
2021/12/13 09:34:18;;;;;;;16.17;9.07;;;;;;;3.99;66.94;101151.63;4430351;32;20197;-70
2021/12/13 09:36:51;;;;;;;28.08;11.98;;;;;;;4.17;64.99;101146.94;4421512;32;20132;-70
2021/12/13 09:39:25;;;;;;;23.98;11.52;;;;;;;4.31;64.71;101144.66;4421194;32;20605;-70
2021/12/13 09:41:53;;;;;;;15.45;7.80;;;;;;;4.51;64.13;101142.56;4426673;32;20132;-70
2021/12/13 09:44:39;;;;;;;32.50;11.52;;;;;;;4.64;63.00;101139.41;4428329;32;20109;-70
2021/12/13 09:47:14;;;;;;;20.10;8.48;;;;;;;4.66;62.60;101142.91;4422484;32;20129;-70
2021/12/13 09:49:47;;;;;;;17.83;8.32;;;;;;;4.76;62.45;101141.41;4426308;32;20476;-69
2021/12/13 09:52:17;;;;;;;16.77;8.32;;;;;;;4.88;62.32;101139.13;4423056;32;20098;-69
2021/12/13 09:54:51;;;;;;;17.15;8.98;;;;;;;4.89;64.18;101137.38;4425961;32;20146;-70
2021/12/13 09:57:43;;;;;;;16.35;7.87;;;;;;;5.10;62.63;101132.66;4418991;32;20081;-70
2021/12/13 10:00:22;;;;;;;16.55;8.68;;;;;;;5.28;62.17;101133.03;4413437;32;20182;-70
2021/12/13 10:02:54;;;;;;;17.05;7.93;;;;;;;5.26;62.27;101123.41;4419570;32;20563;-69
2021/12/13 10:05:30;;;;;;;17.58;8.25;;;;;;;5.21;62.29;101122.44;4423572;32;20158;-69
2021/12/13 10:08:03;;;;;;;20.70;8.90;;;;;;;5.13;62.54;101118.78;4424555;32;20093;-70
2021/12/13 10:10:36;;;;;;;17.95;8.20;;;;;;;5.44;62.71;101121.19;4435391;32;20644;-70
2021/12/13 10:13:09;;;;;;;18.65;9.27;;;;;;;5.32;61.85;101120.94;4423873;32;20108;-70
2021/12/13 10:15:59;;;;;;;14.15;7.68;;;;;;;5.45;61.95;101115.13;4427339;32;20177;-70
2021/12/13 10:18:30;;;;;;;18.55;9.15;;;;;;;5.82;60.66;101123.69;4427500;32;20152;-70
2021/12/13 10:21:06;;;;;;;16.23;8.13;;;;;;;5.92;62.59;101117.81;4426415;32;20093;-71
2021/12/13 10:23:44;;;;;;;19.90;9.57;;;;;;;6.96;57.92;101116.03;4423219;32;20141;-70
2021/12/13 10:26:31;;;;;;;22.10;8.68;;;;;;;7.57;56.20;101116.00;4421049;32;20145;-70
2021/12/13 10:29:02;;;;;;;35.88;12.13;;;;;;;7.98;53.38;101116.44;4428440;32;20177;-69
2021/12/13 10:31:32;;;;;;;18.25;9.18;;;;;;;8.04;53.89;101118.25;4422168;32;20097;-69
2021/12/13 10:34:11;;;;;;;16.90;9.98;;;;;;;7.95;53.74;101108.56;4429312;32;20093;-71
2021/12/13 10:36:42;;;;;;;22.37;12.00;;;;;;;8.25;53.25;101107.09;4431994;32;20088;-73
2021/12/13 10:39:19;;;;;;;27.08;11.70;;;;;;;7.80;53.87;101111.00;4424041;32;20108;-73
2021/12/13 10:42:11;;;;;;;18.20;10.23;;;;;;;8.88;51.89;101116.38;4429325;32;20086;-73
2021/12/13 10:44:44;;;;;;;18.45;9.77;;;;;;;9.64;50.44;101110.63;4425844;32;20094;-73
2021/12/13 10:47:34;;;;;;;22.23;10.50;;;;;;;9.32;49.41;101121.00;4425446;32;20359;-73
2021/12/13 10:50:15;;;;;;;17.10;9.68;;;;;;;9.22;49.02;101112.22;4425644;32;20105;-72
2021/12/13 10:52:48;;;;;;;14.90;8.98;;;;;;;8.63;49.75;101093.44;4424203;32;20101;-72
2021/12/13 10:55:22;;;;;;;24.83;10.57;;;;;;;8.43;52.22;101096.78;4423766;32;20148;-73
2021/12/13 10:57:51;;;;;;;18.95;9.60;;;;;;;8.23;52.50;101104.44;4430122;32;20153;-74
2021/12/13 11:00:27;;;;;;;16.92;9.23;;;;;;;8.96;49.39;101096.28;4427455;31;20090;-74
2021/12/13 11:03:01;;;;;;;16.10;9.10;;;;;;;9.22;48.50;101101.69;4420565;32;20110;-74
2021/12/13 11:05:29;;;;;;;15.38;8.73;;;;;;;9.77;47.93;101095.75;4428594;32;20101;-74
2021/12/13 11:07:58;;;;;;;16.77;8.40;;;;;;;9.93;47.65;101092.31;4420419;32;20112;-74
2021/12/13 11:10:34;;;;;;;14.45;8.20;;;;;;;11.20;44.30;101089.62;4433635;32;20089;-74
2021/12/13 11:13:24;;;;;;;12.32;7.30;;;;;;;11.82;43.53;101086.72;4435725;31;20094;-73
2021/12/13 11:15:54;;;;;;;11.93;8.05;;;;;;;11.98;43.17;101079.59;4435119;32;20120;-73
2021/12/13 11:18:28;;;;;;;15.20;8.13;;;;;;;12.72;40.57;101090.47;4430451;32;20164;-73
2021/12/13 11:21:04;;;;;;;13.62;8.90;;;;;;;11.96;40.42;101085.78;4418891;32;20093;-73
2021/12/13 11:23:32;;;;;;;17.12;9.52;;;;;;;12.54;40.55;101087.09;4418868;32;20136;-74
2021/12/13 11:26:04;;;;;;;18.02;9.20;;;;;;;13.21;40.99;101088.19;4419670;32;20101;-74
2021/12/13 11:28:33;;;;;;;17.85;10.70;;;;;;;12.44;41.91;101086.31;4418896;32;20086;-75
2021/12/13 11:31:09;;;;;;;20.17;9.88;;;;;;;12.57;42.22;101080.91;4419430;32;20093;-74
2021/12/13 11:33:37;;;;;;;19.23;10.23;;;;;;;13.06;38.74;101094.53;4420390;32;20085;-72
2021/12/13 11:36:07;;;;;;;19.02;9.88;;;;;;;12.20;43.59;101091.78;4419933;32;20647;-73
2021/12/13 11:39:13;;;;;;;17.10;10.48;;;;;;;12.36;41.83;101090.75;4422891;32;20090;-72
2021/12/13 11:41:43;;;;;;;17.17;10.63;;;;;;;12.69;41.89;101083.44;4433133;32;20135;-72
2021/12/13 11:44:35;;;;;;;21.23;10.65;;;;;;;12.41;41.29;101085.47;4429937;32;20160;-73
2021/12/13 11:47:40;;;;;;;27.33;10.70;;;;;;;13.22;40.92;101082.00;4430248;32;20176;-73
2021/12/13 11:50:29;;;;;;;16.15;10.88;;;;;;;12.78;41.82;101083.34;4433937;32;20664;-72
2021/12/13 11:53:18;;;;;;;26.10;12.27;;;;;;;12.51;42.27;101075.66;4428577;32;20158;-71
2021/12/13 11:55:57;;;;;;;21.37;10.63;;;;;;;12.23;42.13;101085.63;4424523;32;20097;-72
2021/12/13 11:58:42;;;;;;;16.40;9.98;;;;;;;11.97;43.27;101084.00;4426921;32;20128;-74
2021/12/13 12:01:43;;;;;;;16.52;10.27;;;;;;;12.39;42.64;101080.16;4430919;32;20093;-72
2021/12/13 12:04:48;;;;;;;19.70;10.13;;;;;;;12.95;42.60;101077.03;4426848;32;20136;-73
2021/12/13 12:07:37;;;;;;;18.40;9.88;;;;;;;13.94;38.51;101066.97;4420474;31;20093;-71